createdAt,value
2023-09-17T00:01:33.699Z,19.95
2023-09-17T00:04:02.795Z,17.80
2023-09-17T00:06:30.358Z,19.58
2023-09-17T00:08:57.867Z,21.38
2023-09-17T00:11:24.917Z,16.92
2023-09-17T00:13:52.596Z,17.27
2023-09-17T00:16:20.374Z,17.80
2023-09-17T00:18:47.587Z,17.75
2023-09-17T00:21:14.878Z,17.35
2023-09-17T00:23:46.134Z,18.50
2023-09-17T00:28:44.726Z,19.25
2023-09-17T00:31:11.735Z,21.95
2023-09-17T00:33:41.711Z,16.90
2023-09-17T00:36:08.933Z,20.63
2023-09-17T00:38:37.023Z,20.90
2023-09-17T00:41:04.148Z,20.42
2023-09-17T00:43:31.932Z,21.95
2023-09-17T00:45:59.793Z,25.85
2023-09-17T00:48:28.291Z,20.77
2023-09-17T00:50:58.021Z,20.75
2023-09-17T00:53:28.106Z,22.38
2023-09-17T00:55:56.211Z,20.33
2023-09-17T00:58:24.324Z,17.95
2023-09-17T01:00:53.184Z,27.73
2023-09-17T01:03:20.580Z,21.67
2023-09-17T01:05:49.321Z,19.25
2023-09-17T01:08:16.721Z,22.52
2023-09-17T01:10:44.267Z,23.75
2023-09-17T01:13:12.864Z,20.40
2023-09-17T01:15:40.361Z,24.48
2023-09-17T01:18:12.066Z,19.52
2023-09-17T01:21:04.111Z,23.48
2023-09-17T01:23:39.927Z,20.95
2023-09-17T01:26:18.745Z,22.73
2023-09-17T01:28:46.024Z,22.50
2023-09-17T01:31:13.886Z,21.42
2023-09-17T01:33:41.297Z,19.30
2023-09-17T01:36:18.928Z,18.88
2023-09-17T01:38:52.281Z,20.73
2023-09-17T01:41:20.530Z,23.58
2023-09-17T01:43:48.527Z,23.55
2023-09-17T01:46:18.248Z,21.15
2023-09-17T01:48:47.329Z,28.77
2023-09-17T01:51:15.316Z,24.00
2023-09-17T01:53:43.709Z,28.02
2023-09-17T01:56:13.707Z,31.48
2023-09-17T01:58:40.985Z,20.00
2023-09-17T02:01:08.413Z,30.35
2023-09-17T02:03:35.948Z,24.88
2023-09-17T02:06:05.672Z,20.90
2023-09-17T02:08:32.928Z,25.63
2023-09-17T02:11:00.014Z,26.80
2023-09-17T02:13:27.621Z,22.15
2023-09-17T02:15:55.238Z,24.17
2023-09-17T02:18:22.567Z,25.58
2023-09-17T02:20:49.811Z,20.60
2023-09-17T02:23:18.650Z,25.98
2023-09-17T02:25:47.142Z,25.50
2023-09-17T02:28:14.656Z,29.23
2023-09-17T02:30:42.291Z,21.17
2023-09-17T02:33:11.822Z,19.55
2023-09-17T02:35:39.729Z,24.17
2023-09-17T02:38:07.102Z,21.70
2023-09-17T02:40:34.103Z,22.75
2023-09-17T02:43:03.104Z,23.35
2023-09-17T02:45:30.185Z,31.58
2023-09-17T02:47:58.141Z,24.20
2023-09-17T02:50:29.897Z,25.50
2023-09-17T02:52:57.167Z,23.67
2023-09-17T02:55:24.930Z,26.40
2023-09-17T02:57:52.288Z,21.52
2023-09-17T03:00:24.181Z,30.92
2023-09-17T03:02:56.193Z,27.60
2023-09-17T03:05:24.080Z,22.88
2023-09-17T03:07:53.028Z,24.90
2023-09-17T03:10:21.910Z,28.38
2023-09-17T03:12:51.630Z,24.58
2023-09-17T03:15:20.219Z,28.75
2023-09-17T03:17:48.814Z,23.45
2023-09-17T03:20:19.178Z,23.48
2023-09-17T03:22:48.525Z,24.05
2023-09-17T03:25:16.753Z,22.30
2023-09-17T03:27:46.901Z,27.88
2023-09-17T03:30:14.770Z,22.38
2023-09-17T03:32:53.865Z,24.77
2023-09-17T03:35:28.383Z,23.67
2023-09-17T03:37:55.643Z,21.10
2023-09-17T03:40:23.189Z,25.40
2023-09-17T03:42:51.315Z,19.08
2023-09-17T03:45:19.606Z,24.30
2023-09-17T03:47:49.123Z,21.85
2023-09-17T03:50:21.045Z,25.27
2023-09-17T03:52:58.187Z,29.98
2023-09-17T03:55:26.146Z,26.15
2023-09-17T03:57:57.293Z,22.67
2023-09-17T04:00:26.805Z,27.77
2023-09-17T04:02:54.316Z,24.30
2023-09-17T04:05:26.407Z,29.73
2023-09-17T04:07:54.483Z,26.35
2023-09-17T04:10:25.924Z,25.48
2023-09-17T04:12:52.985Z,47.90
2023-09-17T04:15:23.343Z,36.63
2023-09-17T04:17:54.749Z,34.75
2023-09-17T04:20:22.434Z,26.20
2023-09-17T04:22:52.360Z,23.98
2023-09-17T04:25:23.920Z,25.65
2023-09-17T04:27:55.059Z,29.98
2023-09-17T04:30:25.386Z,22.52
2023-09-17T04:32:56.925Z,24.33
2023-09-17T04:35:25.486Z,27.80
2023-09-17T04:37:53.213Z,22.67
2023-09-17T04:40:31.531Z,25.92
2023-09-17T04:43:05.784Z,25.65
2023-09-17T04:45:39.358Z,26.63
2023-09-17T04:48:23.486Z,22.65
2023-09-17T04:50:50.938Z,22.05
2023-09-17T04:53:18.658Z,22.50
2023-09-17T04:55:48.584Z,25.60
2023-09-17T04:58:17.702Z,28.67
2023-09-17T05:00:48.675Z,20.92
2023-09-17T05:03:19.766Z,20.27
2023-09-17T05:05:47.809Z,16.52
2023-09-17T05:08:18.381Z,20.35
2023-09-17T05:10:47.006Z,18.77
2023-09-17T05:13:14.372Z,18.33
2023-09-17T05:15:41.608Z,19.00
2023-09-17T05:18:11.236Z,20.77
2023-09-17T05:20:45.730Z,16.45
2023-09-17T05:23:13.444Z,20.92
2023-09-17T05:25:40.971Z,23.60
2023-09-17T05:28:10.054Z,19.15
2023-09-17T05:30:37.987Z,18.55
2023-09-17T05:33:06.760Z,17.70
2023-09-17T05:35:35.709Z,18.10
2023-09-17T05:38:04.016Z,24.73
2023-09-17T05:40:31.568Z,19.95
2023-09-17T05:42:59.257Z,17.05
2023-09-17T05:45:27.736Z,24.40
2023-09-17T05:47:55.265Z,22.27
2023-09-17T05:50:24.034Z,25.52
2023-09-17T05:52:51.910Z,20.88
2023-09-17T05:55:20.061Z,25.05
2023-09-17T05:57:47.774Z,23.85
2023-09-17T06:00:16.125Z,18.15
2023-09-17T06:02:43.975Z,19.92
2023-09-17T06:05:16.283Z,16.38
2023-09-17T06:07:44.509Z,22.88
2023-09-17T06:10:13.342Z,20.92
2023-09-17T06:12:40.911Z,15.75
2023-09-17T06:15:08.870Z,19.30
2023-09-17T06:20:07.484Z,22.42
2023-09-17T06:22:35.143Z,22.63
2023-09-17T06:25:04.834Z,27.65
2023-09-17T06:27:32.226Z,33.55
2023-09-17T06:30:00.886Z,30.35
2023-09-17T06:32:29.924Z,17.90
2023-09-17T06:34:57.506Z,22.08
2023-09-17T06:37:29.444Z,21.87
2023-09-17T06:39:58.806Z,18.45
2023-09-17T06:42:26.319Z,14.48
2023-09-17T06:44:53.347Z,17.45
2023-09-17T06:47:21.099Z,13.50
2023-09-17T06:49:48.901Z,15.07
2023-09-17T06:52:18.249Z,14.18
2023-09-17T06:54:46.875Z,14.80
2023-09-17T06:57:13.953Z,15.93
2023-09-17T06:59:41.214Z,13.38
2023-09-17T07:02:08.643Z,18.55
2023-09-17T07:04:35.670Z,11.93
2023-09-17T07:07:03.334Z,10.93
2023-09-17T07:09:30.425Z,11.07
2023-09-17T07:11:57.883Z,11.27
2023-09-17T07:14:25.318Z,10.88
2023-09-17T07:16:52.685Z,12.40
2023-09-17T07:19:20.660Z,10.77
2023-09-17T07:21:47.739Z,9.52
2023-09-17T07:24:15.516Z,16.75
2023-09-17T07:26:43.687Z,13.35
2023-09-17T07:29:10.775Z,9.02
2023-09-17T07:31:38.284Z,10.45
2023-09-17T07:34:05.729Z,11.27
2023-09-17T07:36:33.085Z,9.18
2023-09-17T07:39:00.703Z,9.40
2023-09-17T07:41:27.795Z,10.18
2023-09-17T07:43:57.818Z,17.77
2023-09-17T07:46:25.990Z,10.50
2023-09-17T07:48:53.087Z,9.40
2023-09-17T07:51:20.477Z,11.18
2023-09-17T07:53:48.035Z,15.82
2023-09-17T07:56:18.311Z,15.95
2023-09-17T07:58:47.001Z,18.25
2023-09-17T08:01:15.702Z,9.10
2023-09-17T08:03:43.260Z,8.73
2023-09-17T08:06:12.967Z,14.30
2023-09-17T08:08:40.175Z,10.63
2023-09-17T08:11:08.557Z,10.65
2023-09-17T08:13:35.625Z,17.67
2023-09-17T08:16:03.653Z,10.18
2023-09-17T08:18:36.781Z,11.43
2023-09-17T08:21:05.720Z,20.38
2023-09-17T08:23:32.733Z,16.67
2023-09-17T08:26:02.729Z,17.45
2023-09-17T08:28:30.004Z,11.50
2023-09-17T08:30:57.391Z,14.85
2023-09-17T08:33:24.815Z,17.00
2023-09-17T08:35:52.169Z,10.43
2023-09-17T08:38:20.274Z,7.72
2023-09-17T08:40:49.186Z,11.57
2023-09-17T08:43:18.369Z,16.55
2023-09-17T08:45:45.962Z,10.70
2023-09-17T08:48:15.137Z,14.23
2023-09-17T08:50:43.734Z,23.30
2023-09-17T08:53:14.199Z,32.30
2023-09-17T08:55:41.548Z,7.30
2023-09-17T08:58:13.641Z,9.27
2023-09-17T09:00:46.268Z,10.40
2023-09-17T09:03:18.640Z,11.25
2023-09-17T09:05:48.724Z,6.10
2023-09-17T09:08:16.632Z,10.88
2023-09-17T09:10:43.940Z,5.93
2023-09-17T09:13:14.440Z,8.13
2023-09-17T09:15:42.750Z,8.50
2023-09-17T09:18:10.383Z,7.85
2023-09-17T09:20:39.835Z,6.85
2023-09-17T09:23:08.314Z,7.47
2023-09-17T09:25:36.557Z,6.22
2023-09-17T09:29:02.626Z,6.25
2023-09-17T09:31:31.029Z,7.50
2023-09-17T09:34:01.213Z,10.75
2023-09-17T09:36:29.857Z,6.90
2023-09-17T09:38:59.606Z,6.55
2023-09-17T09:41:30.746Z,9.60
2023-09-17T09:43:58.620Z,6.97
2023-09-17T09:46:28.526Z,11.40
2023-09-17T09:49:04.157Z,5.78
2023-09-17T09:51:32.964Z,14.30
2023-09-17T09:54:00.340Z,8.20
2023-09-17T09:56:29.642Z,9.43
2023-09-17T09:58:58.065Z,5.65
2023-09-17T10:01:27.073Z,9.00
2023-09-17T10:03:59.422Z,11.48
2023-09-17T10:06:27.438Z,7.13
2023-09-17T10:08:57.518Z,5.50
2023-09-17T10:11:25.484Z,6.22
2023-09-17T10:13:56.700Z,9.05
2023-09-17T10:18:53.004Z,10.57
2023-09-17T10:21:20.614Z,6.13
2023-09-17T10:23:49.781Z,7.88
2023-09-17T10:26:22.355Z,14.93
2023-09-17T10:28:51.959Z,5.07
2023-09-17T10:31:20.160Z,6.95
2023-09-17T10:33:49.956Z,11.43
2023-09-17T10:36:17.681Z,7.13
2023-09-17T10:38:47.765Z,4.63
2023-09-17T10:41:15.164Z,4.88
2023-09-17T10:43:45.994Z,7.90
2023-09-17T10:46:14.686Z,6.72
2023-09-17T10:48:43.278Z,5.93
2023-09-17T10:51:11.296Z,5.38
2023-09-17T10:53:39.073Z,9.40
2023-09-17T10:56:10.714Z,13.75
2023-09-17T10:58:45.704Z,5.63
2023-09-17T11:01:22.546Z,6.13
2023-09-17T11:03:57.503Z,8.50
2023-09-17T11:06:25.379Z,8.18
2023-09-17T11:08:57.491Z,7.00
2023-09-17T11:11:26.642Z,8.52
2023-09-17T11:13:54.994Z,5.10
2023-09-17T11:16:25.959Z,5.07
2023-09-17T11:19:12.167Z,7.45
2023-09-17T11:21:43.254Z,11.80
2023-09-17T11:24:14.969Z,6.07
2023-09-17T11:26:44.213Z,12.00
2023-09-17T11:29:12.514Z,7.32
2023-09-17T11:31:51.943Z,8.07
2023-09-17T11:34:19.572Z,10.82
2023-09-17T11:36:48.382Z,6.82
2023-09-17T11:39:17.613Z,5.25
2023-09-17T11:41:55.482Z,5.30
2023-09-17T11:44:23.624Z,6.57
2023-09-17T11:46:51.806Z,9.30
2023-09-17T11:49:20.149Z,14.18
2023-09-17T11:51:49.056Z,11.52
2023-09-17T11:54:24.972Z,9.10
2023-09-17T11:56:55.311Z,6.82
2023-09-17T11:59:26.207Z,6.05
2023-09-17T12:01:55.662Z,11.75
2023-09-17T12:04:31.361Z,7.25
2023-09-17T12:06:59.990Z,6.45
2023-09-17T12:09:48.033Z,6.97
2023-09-17T12:12:24.341Z,5.70
2023-09-17T12:14:51.813Z,11.93
2023-09-17T12:17:19.507Z,7.90
2023-09-17T12:19:58.681Z,12.75
2023-09-17T12:22:37.623Z,12.05
2023-09-17T12:25:27.756Z,14.68
2023-09-17T12:27:54.972Z,11.73
2023-09-17T12:30:22.539Z,7.50
2023-09-17T12:32:49.848Z,9.95
2023-09-17T12:35:17.539Z,14.63
2023-09-17T12:37:44.577Z,6.40
2023-09-17T12:40:14.513Z,5.20
2023-09-17T12:42:41.942Z,10.05
2023-09-17T12:45:10.139Z,11.18
2023-09-17T12:47:42.187Z,9.38
2023-09-17T12:50:10.022Z,7.45
2023-09-17T12:52:37.617Z,9.05
2023-09-17T12:55:05.320Z,8.52
2023-09-17T12:57:32.386Z,10.57
2023-09-17T13:00:00.791Z,5.60
2023-09-17T13:02:30.954Z,11.90
2023-09-17T13:04:59.206Z,7.60
2023-09-17T13:07:29.314Z,8.85
2023-09-17T13:09:59.189Z,6.75
2023-09-17T13:12:30.112Z,13.45
2023-09-17T13:17:30.027Z,4.97
2023-09-17T13:20:03.203Z,6.10
2023-09-17T13:22:33.846Z,7.05
2023-09-17T13:25:09.214Z,5.45
2023-09-17T13:27:36.385Z,4.65
2023-09-17T13:30:03.628Z,10.40
2023-09-17T13:32:33.697Z,7.60
2023-09-17T13:35:01.120Z,4.23
2023-09-17T13:37:28.803Z,5.95
2023-09-17T13:39:56.544Z,4.03
2023-09-17T13:42:27.112Z,7.10
2023-09-17T13:44:57.706Z,7.93
2023-09-17T13:47:24.994Z,7.53
2023-09-17T13:49:52.198Z,5.97
2023-09-17T13:52:19.297Z,19.65
2023-09-17T13:54:47.065Z,6.20
2023-09-17T13:57:14.503Z,6.28
2023-09-17T13:59:41.744Z,6.57
2023-09-17T14:02:09.254Z,4.15
2023-09-17T14:04:36.482Z,9.30
2023-09-17T14:07:05.138Z,5.90
2023-09-17T14:09:32.569Z,4.15
2023-09-17T14:12:00.095Z,6.80
2023-09-17T14:14:27.134Z,5.55
2023-09-17T14:16:54.271Z,8.48
2023-09-17T14:19:21.715Z,6.38
2023-09-17T14:21:49.088Z,5.00
2023-09-17T14:24:16.505Z,3.92
2023-09-17T14:26:45.376Z,18.98
2023-09-17T14:29:19.097Z,3.97
2023-09-17T14:31:46.759Z,3.78
2023-09-17T14:34:17.433Z,6.82
2023-09-17T14:36:53.483Z,6.53
2023-09-17T14:39:20.948Z,4.07
2023-09-17T14:41:56.433Z,4.65
2023-09-17T14:44:28.045Z,4.97
2023-09-17T14:47:00.198Z,4.65
2023-09-17T14:49:27.819Z,8.13
2023-09-17T14:51:55.392Z,4.97
2023-09-17T14:54:23.906Z,10.05
2023-09-17T14:56:54.250Z,5.35
2023-09-17T14:59:22.015Z,5.88
2023-09-17T15:01:59.823Z,6.28
2023-09-17T15:04:29.472Z,8.82
2023-09-17T15:07:35.603Z,9.10
2023-09-17T15:10:03.994Z,4.80
2023-09-17T15:12:31.468Z,6.00
2023-09-17T15:14:58.580Z,9.10
2023-09-17T15:17:27.335Z,6.82
2023-09-17T15:19:54.445Z,8.85
2023-09-17T15:22:21.665Z,7.57
2023-09-17T15:24:48.999Z,7.53
2023-09-17T15:27:15.967Z,6.35
2023-09-17T15:29:42.977Z,10.10
2023-09-17T15:32:11.423Z,6.60
2023-09-17T15:34:41.535Z,4.55
2023-09-17T15:37:08.978Z,9.90
2023-09-17T15:39:36.764Z,7.20
2023-09-17T15:42:19.239Z,5.32
2023-09-17T15:44:46.217Z,10.40
2023-09-17T15:47:13.638Z,6.20
2023-09-17T15:49:42.157Z,7.95
2023-09-17T15:52:09.259Z,6.18
2023-09-17T15:54:39.573Z,13.00
2023-09-17T15:57:07.476Z,5.30
2023-09-17T15:59:34.760Z,4.15
2023-09-17T16:02:01.720Z,4.47
2023-09-17T16:04:29.282Z,6.72
2023-09-17T16:06:57.566Z,11.45
2023-09-17T16:09:24.780Z,9.73
2023-09-17T16:11:56.144Z,8.80
2023-09-17T16:14:23.208Z,7.13
2023-09-17T16:16:54.549Z,13.50
2023-09-17T16:21:55.311Z,4.50
2023-09-17T16:24:22.429Z,7.65
2023-09-17T16:26:50.281Z,4.47
2023-09-17T16:29:17.227Z,6.00
2023-09-17T16:31:44.512Z,4.72
2023-09-17T16:34:11.666Z,5.43
2023-09-17T16:36:41.207Z,4.82
2023-09-17T16:39:08.981Z,4.95
2023-09-17T16:41:36.181Z,5.00
2023-09-17T16:44:04.092Z,11.57
2023-09-17T16:46:31.294Z,8.70
2023-09-17T16:48:58.290Z,8.50
2023-09-17T16:51:25.409Z,10.32
2023-09-17T16:53:55.414Z,5.13
2023-09-17T16:56:22.595Z,4.40
2023-09-17T16:58:49.853Z,12.73
2023-09-17T17:01:18.107Z,4.63
2023-09-17T17:03:45.254Z,6.32
2023-09-17T17:06:14.155Z,6.70
2023-09-17T17:08:41.444Z,6.93
2023-09-17T17:11:08.685Z,12.15
2023-09-17T17:13:36.281Z,9.63
2023-09-17T17:16:03.884Z,7.05
2023-09-17T17:18:31.120Z,7.88
2023-09-17T17:20:58.684Z,5.82
2023-09-17T17:23:25.939Z,6.30
2023-09-17T17:25:53.329Z,13.45
2023-09-17T17:28:20.473Z,5.88
2023-09-17T17:30:47.762Z,6.63
2023-09-17T17:33:15.234Z,8.93
2023-09-17T17:35:42.266Z,15.77
2023-09-17T17:38:09.453Z,6.63
2023-09-17T17:40:37.226Z,7.07
2023-09-17T17:43:04.437Z,5.32
2023-09-17T17:45:33.948Z,5.43
2023-09-17T17:48:01.770Z,8.35
2023-09-17T17:50:28.869Z,7.80
2023-09-17T17:52:55.992Z,4.88
2023-09-17T17:55:23.238Z,5.60
2023-09-17T17:57:53.526Z,9.48
2023-09-17T18:00:20.814Z,10.82
2023-09-17T18:02:48.914Z,6.60
2023-09-17T18:05:16.164Z,6.65
2023-09-17T18:07:45.323Z,8.30
2023-09-17T18:10:12.747Z,11.48
2023-09-17T18:12:42.948Z,8.50
2023-09-17T18:15:11.028Z,12.57
2023-09-17T18:17:39.242Z,7.78
2023-09-17T18:20:07.432Z,4.47
2023-09-17T18:22:34.983Z,6.43
2023-09-17T18:25:02.184Z,8.35
2023-09-17T18:27:29.260Z,4.93
2023-09-17T18:29:56.437Z,5.05
2023-09-17T18:32:25.436Z,5.93
2023-09-17T18:34:54.861Z,6.03
2023-09-17T18:37:22.273Z,5.22
2023-09-17T18:39:49.734Z,5.60
2023-09-17T18:42:17.645Z,5.78
2023-09-17T18:44:44.665Z,7.47
2023-09-17T18:47:11.792Z,4.25
2023-09-17T18:49:38.963Z,9.02
2023-09-17T18:52:05.912Z,5.15
2023-09-17T18:54:33.138Z,6.65
2023-09-17T18:57:04.181Z,3.42
2023-09-17T18:59:31.345Z,3.05
2023-09-17T19:01:58.549Z,7.53
2023-09-17T19:04:25.679Z,5.05
2023-09-17T19:06:52.826Z,6.00
2023-09-17T19:09:19.888Z,7.32
2023-09-17T19:11:46.964Z,5.15
2023-09-17T19:14:14.023Z,5.40
2023-09-17T19:16:41.286Z,9.77
2023-09-17T19:19:08.445Z,4.15
2023-09-17T19:21:37.091Z,9.18
2023-09-17T19:24:05.502Z,5.72
2023-09-17T19:26:32.680Z,4.50
2023-09-17T19:29:04.491Z,6.07
2023-09-17T19:31:32.087Z,7.68
2023-09-17T19:34:02.190Z,5.07
2023-09-17T19:36:29.126Z,6.07
2023-09-17T19:38:57.393Z,4.05
2023-09-17T19:41:25.816Z,5.28
2023-09-17T19:44:22.581Z,5.20
2023-09-17T19:47:15.208Z,5.45
2023-09-17T19:49:45.162Z,5.60
2023-09-17T19:52:12.863Z,7.70
2023-09-17T19:54:49.837Z,6.72
2023-09-17T19:57:18.209Z,6.55
2023-09-17T19:59:45.253Z,8.27
2023-09-17T20:02:12.650Z,6.10
2023-09-17T20:04:39.806Z,9.55
2023-09-17T20:07:07.008Z,7.82
2023-09-17T20:09:34.214Z,7.53
2023-09-17T20:12:01.657Z,6.68
2023-09-17T20:14:28.692Z,7.88
2023-09-17T20:16:55.834Z,13.13
2023-09-17T20:19:23.170Z,9.02
2023-09-17T20:21:51.470Z,6.10
2023-09-17T20:24:18.607Z,7.93
2023-09-17T20:26:46.208Z,6.97
2023-09-17T20:29:13.621Z,7.05
2023-09-17T20:31:54.680Z,10.55
2023-09-17T20:34:23.693Z,3.33
2023-09-17T20:36:51.342Z,7.85
2023-09-17T20:39:18.247Z,9.52
2023-09-17T20:41:57.565Z,10.77
2023-09-17T20:47:09.538Z,6.28
2023-09-17T20:49:36.612Z,8.45
2023-09-17T20:52:03.878Z,9.30
2023-09-17T20:54:31.025Z,8.02
2023-09-17T20:56:59.111Z,8.32
2023-09-17T20:59:26.068Z,8.07
2023-09-17T21:01:54.560Z,5.15
2023-09-17T21:04:21.706Z,7.38
2023-09-17T21:06:48.826Z,5.65
2023-09-17T21:09:27.513Z,8.57
2023-09-17T21:11:55.133Z,8.40
2023-09-17T21:14:22.873Z,6.10
2023-09-17T21:16:50.015Z,7.28
2023-09-17T21:19:17.374Z,9.57
2023-09-17T21:21:44.278Z,7.20
2023-09-17T21:24:11.336Z,9.80
2023-09-17T21:26:38.415Z,7.50
2023-09-17T21:29:05.684Z,4.38
2023-09-17T21:31:32.933Z,7.28
2023-09-17T21:34:00.127Z,11.23
2023-09-17T21:36:27.236Z,4.55
2023-09-17T21:38:54.805Z,6.40
2023-09-17T21:41:22.165Z,7.13
2023-09-17T21:43:49.323Z,8.77
2023-09-17T21:46:16.586Z,6.28
2023-09-17T21:48:43.709Z,11.57
2023-09-17T21:51:10.756Z,12.52
2023-09-17T21:53:37.688Z,6.57
2023-09-17T21:56:05.173Z,9.48
2023-09-17T21:58:32.380Z,15.63
2023-09-17T22:00:59.738Z,6.63
2023-09-17T22:03:26.859Z,6.60
2023-09-17T22:05:53.957Z,7.05
2023-09-17T22:08:22.272Z,11.63
2023-09-17T22:10:49.645Z,12.52
2023-09-17T22:13:16.887Z,10.65
2023-09-17T22:15:44.757Z,8.02
2023-09-17T22:18:11.875Z,11.07
2023-09-17T22:20:39.144Z,6.10
2023-09-17T22:23:07.022Z,8.00
2023-09-17T22:25:34.294Z,8.07
2023-09-17T22:28:02.114Z,8.20
2023-09-17T22:30:29.103Z,7.70
2023-09-17T22:32:56.239Z,6.05
2023-09-17T22:35:23.474Z,6.75
2023-09-17T22:37:50.994Z,8.20
2023-09-17T22:40:18.199Z,6.28
2023-09-17T22:42:45.660Z,7.95
2023-09-17T22:45:13.019Z,7.35
2023-09-17T22:47:40.236Z,6.03
2023-09-17T22:50:08.073Z,9.05
2023-09-17T22:52:35.439Z,15.07
2023-09-17T22:55:02.615Z,7.10
2023-09-17T22:57:29.858Z,6.80
2023-09-17T22:59:56.884Z,8.77
2023-09-17T23:02:24.324Z,17.58
2023-09-17T23:04:51.521Z,10.65
2023-09-17T23:07:18.706Z,6.38
2023-09-17T23:09:45.682Z,6.90
2023-09-17T23:12:14.803Z,8.90
2023-09-17T23:14:41.802Z,7.88
2023-09-17T23:17:08.937Z,8.88
2023-09-17T23:19:36.962Z,10.77
2023-09-17T23:22:07.033Z,6.13
2023-09-17T23:24:34.117Z,5.88
2023-09-17T23:27:01.188Z,7.35
2023-09-17T23:29:29.297Z,9.63
2023-09-17T23:31:56.840Z,8.10
2023-09-17T23:34:25.731Z,7.32
2023-09-17T23:36:52.933Z,8.73
2023-09-17T23:39:19.857Z,5.57
2023-09-17T23:41:46.864Z,7.95
2023-09-17T23:44:14.077Z,7.05
2023-09-17T23:46:41.167Z,7.03
2023-09-17T23:49:08.443Z,7.78
2023-09-17T23:51:35.334Z,6.47
2023-09-17T23:54:02.296Z,9.30
2023-09-17T23:56:29.587Z,9.15
2023-09-17T23:58:56.690Z,6.63
